createdAt,value
2019-06-26T00:01:34.908Z,65.06
2019-06-26T00:04:58.123Z,66.28
2019-06-26T00:08:21.458Z,66.02
2019-06-26T00:11:45.543Z,65.96
2019-06-26T00:15:09.335Z,65.51
2019-06-26T00:18:32.599Z,66.18
2019-06-26T00:21:55.923Z,65.97
2019-06-26T00:25:19.320Z,64.57
2019-06-26T00:28:42.432Z,65.44
2019-06-26T00:32:05.694Z,65.54
2019-06-26T00:35:28.794Z,66.42
2019-06-26T00:38:52.073Z,64.98
2019-06-26T00:42:15.255Z,66.08
2019-06-26T00:45:38.439Z,65.91
2019-06-26T00:49:04.428Z,65.94
2019-06-26T00:52:27.802Z,66.56
2019-06-26T00:55:50.975Z,66.11
2019-06-26T00:59:14.383Z,67.35
2019-06-26T01:02:39.908Z,68.02
2019-06-26T01:06:03.126Z,65.69
2019-06-26T01:09:27.435Z,67.21
2019-06-26T01:12:50.579Z,67.84
2019-06-26T01:16:13.769Z,68.54
2019-06-26T01:19:36.970Z,67.92
2019-06-26T01:23:00.111Z,69.15
2019-06-26T01:26:23.398Z,67.43
2019-06-26T01:29:46.506Z,68.33
2019-06-26T01:33:09.738Z,66.08
2019-06-26T01:36:33.273Z,68.29
2019-06-26T01:39:57.577Z,67.66
2019-06-26T01:43:21.110Z,68.90
2019-06-26T01:46:45.676Z,69.04
2019-06-26T01:50:09.188Z,69.38
2019-06-26T01:53:35.102Z,69.59
2019-06-26T01:56:58.213Z,69.45
2019-06-26T02:00:21.688Z,68.66
2019-06-26T02:03:44.849Z,69.92
2019-06-26T02:07:07.923Z,68.92
2019-06-26T02:10:31.488Z,69.14
2019-06-26T02:13:54.587Z,69.91
2019-06-26T02:17:17.749Z,70.02
2019-06-26T02:20:40.956Z,70.86
2019-06-26T02:24:04.242Z,70.07
2019-06-26T02:27:27.460Z,71.05
2019-06-26T02:30:50.655Z,69.80
2019-06-26T02:34:13.863Z,69.07
2019-06-26T02:37:37.298Z,68.39
2019-06-26T02:41:00.463Z,68.33
2019-06-26T02:44:23.701Z,68.57
2019-06-26T02:47:46.949Z,68.57
2019-06-26T02:51:10.165Z,68.02
2019-06-26T02:54:34.251Z,69.02
2019-06-26T02:57:57.755Z,70.02
2019-06-26T03:01:20.878Z,69.91
2019-06-26T03:04:44.165Z,70.64
2019-06-26T03:08:07.361Z,69.61
2019-06-26T03:11:30.865Z,70.37
2019-06-26T03:15:07.808Z,70.64
2019-06-26T03:18:19.082Z,69.85
2019-06-26T03:21:42.213Z,70.51
2019-06-26T03:25:05.662Z,70.40
2019-06-26T03:28:28.767Z,70.65
2019-06-26T03:31:51.892Z,69.80
2019-06-26T03:35:15.089Z,69.62
2019-06-26T03:38:38.592Z,70.69
2019-06-26T03:42:01.818Z,70.05
2019-06-26T03:45:26.486Z,70.70
2019-06-26T03:48:50.875Z,69.99
2019-06-26T03:52:14.026Z,69.36
2019-06-26T03:55:37.121Z,71.15
2019-06-26T03:59:00.279Z,69.80
2019-06-26T04:02:23.460Z,69.71
2019-06-26T04:05:46.541Z,68.97
2019-06-26T04:09:10.208Z,69.23
2019-06-26T04:12:33.414Z,69.24
2019-06-26T04:15:56.617Z,68.94
2019-06-26T04:19:19.812Z,68.68
2019-06-26T04:22:42.948Z,69.59
2019-06-26T04:26:06.097Z,67.98
2019-06-26T04:29:29.575Z,67.46
2019-06-26T04:32:52.897Z,67.80
2019-06-26T04:36:16.001Z,67.86
2019-06-26T04:39:39.181Z,68.59
2019-06-26T04:43:02.649Z,68.35
2019-06-26T04:46:25.816Z,68.71
2019-06-26T04:49:48.946Z,69.20
2019-06-26T04:53:12.285Z,69.80
2019-06-26T04:56:35.352Z,68.93
2019-06-26T04:59:58.440Z,68.35
2019-06-26T05:03:21.572Z,69.72
2019-06-26T05:06:44.593Z,67.94
2019-06-26T05:10:34.731Z,67.62
2019-06-26T05:14:05.917Z,67.32
2019-06-26T05:17:29.445Z,68.12
2019-06-26T05:20:52.619Z,67.64
2019-06-26T05:24:16.018Z,67.69
2019-06-26T05:27:39.292Z,67.77
2019-06-26T05:31:02.572Z,67.04
2019-06-26T05:34:25.737Z,67.62
2019-06-26T05:37:48.783Z,67.59
2019-06-26T05:41:11.862Z,66.63
2019-06-26T05:44:35.275Z,67.08
2019-06-26T05:47:58.353Z,66.88
2019-06-26T05:51:22.646Z,66.85
2019-06-26T05:54:46.108Z,67.50
2019-06-26T05:58:09.179Z,65.43
2019-06-26T06:01:32.394Z,66.12
2019-06-26T06:04:55.495Z,65.87
2019-06-26T06:08:19.705Z,64.94
2019-06-26T06:11:42.781Z,66.26
2019-06-26T06:15:06.425Z,65.58
2019-06-26T06:18:29.520Z,65.81
2019-06-26T06:21:52.648Z,65.93
2019-06-26T06:25:15.739Z,65.70
2019-06-26T06:28:38.979Z,65.91
2019-06-26T06:32:02.090Z,66.01
2019-06-26T06:35:25.280Z,66.21
2019-06-26T06:38:48.457Z,65.07
2019-06-26T06:42:12.667Z,64.73
2019-06-26T06:45:35.784Z,64.65
2019-06-26T06:48:59.285Z,64.46
2019-06-26T06:52:22.362Z,65.22
2019-06-26T06:55:45.461Z,65.54
2019-06-26T06:59:08.524Z,65.01
2019-06-26T07:02:31.618Z,64.82
2019-06-26T07:05:54.660Z,64.49
2019-06-26T07:09:17.736Z,64.54
2019-06-26T07:12:40.814Z,64.41
2019-06-26T07:16:04.015Z,63.31
2019-06-26T07:19:27.138Z,63.65
2019-06-26T07:22:50.199Z,64.25
2019-06-26T07:26:13.533Z,63.76
2019-06-26T07:29:36.988Z,63.23
2019-06-26T07:33:00.386Z,62.32
2019-06-26T07:36:23.469Z,62.83
2019-06-26T07:39:46.597Z,61.90
2019-06-26T07:43:09.738Z,61.74
2019-06-26T07:46:33.063Z,60.93
2019-06-26T07:49:56.139Z,61.25
2019-06-26T07:53:19.421Z,61.78
2019-06-26T07:56:42.776Z,60.79
2019-06-26T08:00:06.563Z,61.71
2019-06-26T08:03:29.906Z,62.58
2019-06-26T08:06:55.205Z,62.55
2019-06-26T08:10:18.601Z,60.99
2019-06-26T08:13:44.387Z,60.26
2019-06-26T08:17:07.489Z,59.95
2019-06-26T08:20:30.598Z,60.54
2019-06-26T08:23:53.729Z,60.77
2019-06-26T08:27:16.895Z,60.18
2019-06-26T08:30:40.394Z,61.00
2019-06-26T08:34:03.729Z,59.70
2019-06-26T08:37:27.209Z,59.96
2019-06-26T08:40:50.335Z,59.38
2019-06-26T08:44:13.455Z,58.17
2019-06-26T08:47:36.554Z,59.41
2019-06-26T08:51:00.001Z,57.57
2019-06-26T08:54:23.125Z,57.22
2019-06-26T08:57:46.245Z,57.63
2019-06-26T09:01:09.594Z,56.93
2019-06-26T09:04:32.847Z,57.67
2019-06-26T09:07:56.106Z,57.20
2019-06-26T09:11:19.393Z,57.05
2019-06-26T09:14:42.517Z,57.39
2019-06-26T09:18:05.643Z,56.42
2019-06-26T09:21:31.094Z,55.99
2019-06-26T09:24:53.851Z,56.47
2019-06-26T09:28:17.044Z,55.63
2019-06-26T09:31:40.136Z,55.78
2019-06-26T09:35:03.741Z,55.07
2019-06-26T09:38:27.891Z,54.37
2019-06-26T09:41:51.395Z,53.10
2019-06-26T09:45:14.691Z,56.24
2019-06-26T09:48:51.665Z,54.81
2019-06-26T09:52:03.104Z,54.38
2019-06-26T09:55:26.437Z,53.09
2019-06-26T09:58:49.560Z,54.10
2019-06-26T10:02:12.687Z,53.26
2019-06-26T10:05:35.943Z,53.05
2019-06-26T10:08:59.730Z,52.32
2019-06-26T10:12:23.067Z,51.12
2019-06-26T10:15:46.253Z,49.99
2019-06-26T10:19:10.968Z,50.10
2019-06-26T10:22:35.688Z,50.87
2019-06-26T10:25:59.230Z,48.96
2019-06-26T10:29:22.467Z,48.34
2019-06-26T10:32:45.703Z,46.37
2019-06-26T10:36:09.037Z,48.73
2019-06-26T10:39:32.490Z,45.23
2019-06-26T10:42:55.742Z,47.70
2019-06-26T10:46:18.944Z,46.71
2019-06-26T10:49:43.081Z,46.92
2019-06-26T10:53:06.250Z,46.15
2019-06-26T10:56:29.556Z,47.88
2019-06-26T10:59:55.616Z,45.43
2019-06-26T11:03:17.686Z,43.77
2019-06-26T11:06:40.945Z,45.44
2019-06-26T11:10:05.323Z,43.11
2019-06-26T11:13:28.816Z,43.54
2019-06-26T11:16:52.247Z,41.55
2019-06-26T11:20:17.085Z,40.68
2019-06-26T11:23:40.265Z,43.25
2019-06-26T11:27:03.571Z,40.24
2019-06-26T11:30:28.143Z,40.14
2019-06-26T11:33:52.288Z,39.60
2019-06-26T11:37:15.638Z,37.72
2019-06-26T11:40:39.099Z,37.38
2019-06-26T11:44:02.736Z,35.97
2019-06-26T11:47:26.341Z,34.93
2019-06-26T11:50:49.499Z,36.50
2019-06-26T11:54:12.836Z,39.84
2019-06-26T11:57:36.438Z,34.30
2019-06-26T12:00:59.586Z,35.60
2019-06-26T12:04:23.091Z,38.41
2019-06-26T12:07:46.165Z,34.52
2019-06-26T12:11:09.628Z,33.32
2019-06-26T12:14:33.822Z,35.70
2019-06-26T12:17:56.950Z,32.59
2019-06-26T12:21:20.064Z,31.88
2019-06-26T12:24:43.528Z,32.02
2019-06-26T12:28:06.630Z,32.03
2019-06-26T12:31:29.800Z,32.44
2019-06-26T12:34:52.934Z,33.00
2019-06-26T12:38:16.149Z,29.18
2019-06-26T12:41:39.347Z,31.29
2019-06-26T12:45:03.146Z,33.14
2019-06-26T12:48:26.480Z,31.96
2019-06-26T12:51:50.003Z,33.40
2019-06-26T12:55:13.374Z,32.22
2019-06-26T12:58:36.580Z,31.58
2019-06-26T13:01:59.810Z,30.99
2019-06-26T13:05:23.090Z,31.62
2019-06-26T13:08:46.213Z,28.28
2019-06-26T13:12:09.480Z,30.19
2019-06-26T13:15:33.033Z,30.08
2019-06-26T13:18:56.275Z,32.34
2019-06-26T13:22:19.454Z,36.20
2019-06-26T13:25:42.552Z,34.86
2019-06-26T13:29:09.518Z,28.68
2019-06-26T13:32:30.828Z,27.68
2019-06-26T13:35:53.916Z,26.34
2019-06-26T13:39:17.393Z,27.39
2019-06-26T13:42:40.677Z,26.98
2019-06-26T13:46:03.991Z,30.76
2019-06-26T13:49:29.969Z,29.76
2019-06-26T13:52:53.386Z,31.27
2019-06-26T13:56:16.621Z,31.20
2019-06-26T13:59:39.793Z,30.79
2019-06-26T14:03:03.176Z,32.75
2019-06-26T14:06:26.379Z,31.46
2019-06-26T14:09:49.531Z,30.36
2019-06-26T14:13:12.971Z,29.63
2019-06-26T14:16:36.137Z,30.29
2019-06-26T14:19:59.351Z,30.31
2019-06-26T14:23:22.481Z,29.15
2019-06-26T14:26:45.697Z,30.10
2019-06-26T14:30:09.306Z,32.19
2019-06-26T14:33:32.728Z,29.34
2019-06-26T14:36:55.854Z,31.22
2019-06-26T14:40:20.816Z,29.91
2019-06-26T14:43:44.012Z,29.59
2019-06-26T14:47:07.098Z,28.34
2019-06-26T14:50:30.202Z,28.87
2019-06-26T14:53:53.437Z,23.88
2019-06-26T14:57:16.576Z,25.79
2019-06-26T15:00:40.033Z,27.53
2019-06-26T15:04:03.369Z,26.95
2019-06-26T15:07:26.589Z,24.66
2019-06-26T15:10:50.212Z,26.62
2019-06-26T15:14:13.388Z,26.83
2019-06-26T15:17:36.673Z,26.47
2019-06-26T15:21:05.824Z,26.28
2019-06-26T15:24:30.384Z,26.48
2019-06-26T15:27:53.541Z,24.21
2019-06-26T15:31:16.672Z,25.29
2019-06-26T15:34:39.880Z,23.45
2019-06-26T15:38:03.360Z,26.37
2019-06-26T15:41:26.472Z,27.87
2019-06-26T15:44:49.795Z,26.92
2019-06-26T15:48:13.087Z,25.43
2019-06-26T15:51:36.894Z,24.75
2019-06-26T15:55:09.137Z,25.99
2019-06-26T15:58:36.468Z,27.87
2019-06-26T16:01:59.664Z,26.32
2019-06-26T16:05:33.094Z,25.81
2019-06-26T16:09:25.802Z,26.58
2019-06-26T16:13:16.253Z,25.44
2019-06-26T16:17:04.839Z,26.69
2019-06-26T16:20:39.476Z,25.43
2019-06-26T16:24:16.137Z,26.51
2019-06-26T16:28:04.235Z,25.31
2019-06-26T16:31:28.755Z,26.86
2019-06-26T16:34:59.842Z,27.10
2019-06-26T16:38:37.115Z,27.29
2019-06-26T16:42:27.277Z,28.37
2019-06-26T16:45:50.597Z,29.04
2019-06-26T16:49:13.766Z,29.70
2019-06-26T16:52:48.724Z,29.08
2019-06-26T16:56:02.424Z,31.39
2019-06-26T16:59:25.604Z,31.74
2019-06-26T17:02:48.844Z,30.62
2019-06-26T17:06:13.227Z,30.87
2019-06-26T17:09:36.369Z,30.92
2019-06-26T17:12:59.509Z,32.67
2019-06-26T17:16:22.976Z,31.46
2019-06-26T17:19:46.149Z,34.74
2019-06-26T17:23:09.380Z,36.45
2019-06-26T17:26:32.627Z,37.95
2019-06-26T17:29:55.861Z,40.11
2019-06-26T17:33:19.137Z,40.83
2019-06-26T17:36:42.434Z,40.04
2019-06-26T17:40:07.791Z,39.30
2019-06-26T17:43:31.111Z,40.39
2019-06-26T17:46:54.624Z,41.39
2019-06-26T17:50:18.941Z,41.84
2019-06-26T17:53:42.056Z,41.65
2019-06-26T17:57:05.330Z,41.94
2019-06-26T18:00:33.430Z,41.90
2019-06-26T18:03:56.836Z,42.20
2019-06-26T18:07:20.132Z,42.34
2019-06-26T18:10:43.374Z,42.71
2019-06-26T18:14:06.804Z,41.81
2019-06-26T18:17:30.015Z,43.49
2019-06-26T18:20:53.304Z,42.88
2019-06-26T18:24:16.410Z,44.54
2019-06-26T18:27:42.600Z,44.94
2019-06-26T18:31:05.734Z,43.69
2019-06-26T18:34:28.890Z,45.05
2019-06-26T18:37:52.148Z,45.30
2019-06-26T18:41:18.528Z,46.19
2019-06-26T18:44:43.628Z,44.50
2019-06-26T18:48:06.859Z,48.06
2019-06-26T18:51:47.014Z,50.23
2019-06-26T18:55:06.970Z,49.57
2019-06-26T18:58:30.944Z,50.85
2019-06-26T19:01:54.543Z,49.74
2019-06-26T19:05:18.252Z,51.12
2019-06-26T19:08:41.927Z,51.86
2019-06-26T19:12:11.005Z,48.51
2019-06-26T19:15:36.726Z,51.60
2019-06-26T19:19:00.132Z,52.30
2019-06-26T19:22:23.445Z,52.36
2019-06-26T19:25:46.988Z,49.99
2019-06-26T19:29:10.656Z,51.72
2019-06-26T19:32:37.554Z,53.02
2019-06-26T19:36:00.730Z,51.69
2019-06-26T19:39:23.872Z,53.20
2019-06-26T19:42:47.161Z,51.80
2019-06-26T19:46:10.697Z,52.19
2019-06-26T19:49:34.033Z,51.58
2019-06-26T19:52:58.040Z,50.79
2019-06-26T19:56:21.863Z,51.25
2019-06-26T19:59:45.095Z,51.31
2019-06-26T20:03:10.966Z,50.85
2019-06-26T20:06:34.666Z,52.60
2019-06-26T20:10:01.574Z,50.95
2019-06-26T20:13:23.116Z,52.24
2019-06-26T20:16:46.361Z,50.71
2019-06-26T20:20:10.341Z,51.03
2019-06-26T20:23:33.650Z,51.33
2019-06-26T20:26:57.113Z,51.55
2019-06-26T20:30:26.172Z,52.31
2019-06-26T20:33:49.611Z,49.66
2019-06-26T20:37:12.813Z,49.14
2019-06-26T20:40:35.990Z,51.57
2019-06-26T20:43:59.191Z,49.98
2019-06-26T20:47:22.358Z,49.51
2019-06-26T20:50:46.052Z,50.60
2019-06-26T20:54:09.199Z,50.83
2019-06-26T20:57:32.385Z,51.68
2019-06-26T21:00:56.977Z,50.63
2019-06-26T21:04:20.258Z,53.00
2019-06-26T21:07:43.409Z,52.09
2019-06-26T21:11:06.511Z,52.62
2019-06-26T21:14:29.628Z,53.41
2019-06-26T21:17:52.957Z,52.11
2019-06-26T21:21:16.107Z,52.78
2019-06-26T21:24:39.374Z,53.66
2019-06-26T21:28:02.753Z,54.49
2019-06-26T21:31:25.940Z,54.49
2019-06-26T21:34:49.374Z,53.19
2019-06-26T21:38:12.843Z,53.79
2019-06-26T21:41:35.937Z,53.84
2019-06-26T21:44:59.386Z,54.29
2019-06-26T21:48:22.488Z,54.29
2019-06-26T21:51:45.893Z,54.52
2019-06-26T21:55:09.149Z,55.16
2019-06-26T21:58:50.703Z,55.12
2019-06-26T22:02:32.213Z,56.89
2019-06-26T22:05:56.404Z,56.95
2019-06-26T22:09:33.466Z,56.77
2019-06-26T22:12:57.025Z,58.00
2019-06-26T22:16:20.317Z,56.82
2019-06-26T22:19:44.002Z,56.54
2019-06-26T22:23:07.235Z,57.24
2019-06-26T22:26:30.541Z,57.47
2019-06-26T22:29:54.270Z,57.59
2019-06-26T22:33:17.468Z,56.77
2019-06-26T22:36:51.061Z,56.55
2019-06-26T22:40:06.280Z,57.21
2019-06-26T22:43:29.521Z,56.63
2019-06-26T22:46:53.042Z,55.03
2019-06-26T22:50:16.840Z,55.23
2019-06-26T22:53:39.965Z,56.75
2019-06-26T22:57:03.137Z,56.21
2019-06-26T23:00:27.570Z,56.48
2019-06-26T23:03:50.800Z,56.73
2019-06-26T23:07:13.898Z,57.08
2019-06-26T23:10:37.045Z,57.05
2019-06-26T23:14:00.295Z,56.18
2019-06-26T23:17:23.437Z,57.13
2019-06-26T23:20:46.513Z,57.78
2019-06-26T23:24:09.713Z,57.18
2019-06-26T23:27:32.857Z,57.96
2019-06-26T23:30:55.971Z,57.48
2019-06-26T23:34:19.487Z,57.13
2019-06-26T23:37:42.697Z,58.37
2019-06-26T23:41:05.857Z,58.56
2019-06-26T23:44:29.062Z,58.33
2019-06-26T23:47:52.211Z,58.49
2019-06-26T23:51:15.641Z,58.57
2019-06-26T23:54:38.811Z,59.68
2019-06-26T23:58:02.001Z,59.95
